This is the latest recevied weather packets stored in our database for station/object T10BNorth. If no packets are shown the sender has not sent any weather packets the latest 1 day(s).
| Time | Temp. | Humidity | Pressure | Rain* | Wind** | Luminosity | Snow |
|---|---|---|---|---|---|---|---|
| 1778090304 | 13.33° C | 99% | 1005 hPa | 2.29 mm | - | 37 W/m² | - |
| 1778090243 | 13.33° C | 99% | 1005 hPa | 2.29 mm | - | 18 W/m² | - |
| 1778090118 | 13.33° C | 99% | 1005 hPa | 2.29 mm | - | 18 W/m² | - |
| 1778089873 | 13.33° C | 99% | 1005 hPa | 2.29 mm | - | 25 W/m² | - |
| 1778089632 | 13.33° C | 99% | 1005.1 hPa | 2.03 mm | - | 65 W/m² | - |
| 1778089563 | 13.33° C | 99% | 1005.1 hPa | 2.03 mm | - | 47 W/m² | - |
| 1778089444 | 13.33° C | 99% | 1005 hPa | 2.03 mm | - | 46 W/m² | - |
| 1778089384 | 13.33° C | 99% | 1005.3 hPa | 1.78 mm | - | 37 W/m² | - |
| 1778088782 | 13.33° C | 99% | 1005.1 hPa | 1.78 mm | - | 83 W/m² | - |
| 1778088478 | 13.33° C | 99% | 1005.3 hPa | 1.52 mm | - | 65 W/m² | - |
| 1778088294 | 13.33° C | 99% | 1005.4 hPa | 1.27 mm | - | 54 W/m² | - |
| 1778088050 | 13.33° C | 98% | 1005.5 hPa | 1.52 mm | - | 32 W/m² | - |
| 1778088022 | 13.33° C | 98% | 1005.5 hPa | 1.52 mm | - | 33 W/m² | - |
| 1778087862 | 13.33° C | 98% | 1005.5 hPa | 1.52 mm | - | 53 W/m² | - |
| 1778087677 | 13.33° C | 98% | 1005.6 hPa | 1.27 mm | - | 51 W/m² | - |
| 1778087617 | 13.33° C | 98% | 1005.5 hPa | 1.27 mm | - | 58 W/m² | - |
| 1778087374 | 13.33° C | 98% | 1005.6 hPa | 1.02 mm | - | 60 W/m² | - |
| 1778087253 | 13.33° C | 98% | 1005.6 hPa | 1.02 mm | - | 46 W/m² | - |
| 1778087071 | 13.33° C | 98% | 1005.6 hPa | 1.02 mm | - | 74 W/m² | - |
| 1778086952 | 13.33° C | 98% | 1005.6 hPa | 1.02 mm | - | 76 W/m² | - |
| 1778086891 | 13.33° C | 98% | 1005.6 hPa | 1.02 mm | - | 81 W/m² | - |
| 1778086650 | 13.33° C | 98% | 1005.6 hPa | 1.02 mm | - | 88 W/m² | - |
| 1778086519 | 13.33° C | 97% | 1005.5 hPa | 1.02 mm | - | 97 W/m² | - |
| 1778086218 | 13.33° C | 98% | 1005.6 hPa | 0.76 mm | - | 74 W/m² | - |
| 1778085911 | 13.33° C | 97% | 1005.6 hPa | 0.76 mm | - | 74 W/m² | - |
* Rain latest hour (hover to see other rain measurements)
** Current wind speed in m/s (hover to see current wind gust speed)